createdAt,value
2022-09-29T00:05:02.469Z,2.1
2022-09-29T00:10:12.790Z,1.6
2022-09-29T00:16:02.519Z,2
2022-09-29T00:21:12.696Z,1.9
2022-09-29T00:26:12.756Z,1.8
2022-09-29T00:32:02.558Z,2.1
2022-09-29T00:37:12.480Z,1.8
2022-09-29T00:42:12.562Z,1.9
2022-09-29T00:47:12.623Z,2
2022-09-29T00:53:02.248Z,1.7
2022-09-29T00:58:02.273Z,1.9
2022-09-29T01:03:02.324Z,1.7
2022-09-29T01:08:12.491Z,2.1
2022-09-29T01:13:12.514Z,1.9
2022-09-29T01:18:12.590Z,1.9
2022-09-29T01:23:12.575Z,1.8
2022-09-29T01:29:02.217Z,1.7
2022-09-29T01:34:12.573Z,2
2022-09-29T01:39:12.541Z,2
2022-09-29T01:45:02.211Z,1.9
2022-09-29T01:50:02.314Z,1.8
2022-09-29T01:55:12.504Z,1.9
2022-09-29T02:00:12.514Z,1.9
2022-09-29T02:05:12.580Z,1.8
2022-09-29T02:10:12.639Z,1.8
2022-09-29T02:16:02.549Z,1.6
2022-09-29T02:21:12.695Z,1.9
2022-09-29T02:26:12.700Z,1.8
2022-09-29T02:31:12.792Z,2
2022-09-29T02:37:02.220Z,2.3
2022-09-29T02:42:02.394Z,1.9
2022-09-29T02:47:12.533Z,1.8
2022-09-29T02:53:02.235Z,1.9
2022-09-29T02:58:02.469Z,1.8
2022-09-29T03:03:12.592Z,1.8
2022-09-29T03:08:12.729Z,1.7
2022-09-29T03:14:02.421Z,1.9
2022-09-29T03:19:02.497Z,1.9
2022-09-29T03:24:12.891Z,1.9
2022-09-29T03:30:02.217Z,1.9
2022-09-29T03:35:02.272Z,2
2022-09-29T03:40:02.310Z,2.2
2022-09-29T03:45:02.413Z,2.2
2022-09-29T03:50:02.425Z,2
2022-09-29T03:55:12.581Z,1.7
2022-09-29T04:01:02.463Z,1.9
2022-09-29T04:06:02.405Z,1.6
2022-09-29T04:11:12.739Z,1.9
2022-09-29T04:17:02.284Z,1.8
2022-09-29T04:22:12.699Z,1.9
2022-09-29T04:28:02.458Z,1.9
2022-09-29T04:33:12.678Z,1.9
2022-09-29T04:39:02.397Z,2.1
2022-09-29T04:44:12.569Z,2.1
2022-09-29T04:49:12.722Z,2.1
2022-09-29T04:55:02.194Z,1.9
2022-09-29T05:00:02.481Z,1.9
2022-09-29T05:05:12.513Z,1.9
2022-09-29T05:11:02.400Z,2
2022-09-29T05:16:12.527Z,1.9
2022-09-29T05:21:29.295Z,2.3
2022-09-29T05:26:12.834Z,2.3
2022-09-29T05:32:02.436Z,1.9
2022-09-29T05:37:12.745Z,1.9
2022-09-29T05:43:02.396Z,2
2022-09-29T05:48:12.515Z,2.1
2022-09-29T05:53:12.550Z,2
2022-09-29T05:58:12.677Z,2
2022-09-29T06:03:19.408Z,2.1
2022-09-29T06:09:02.412Z,2
2022-09-29T06:14:12.448Z,2.1
2022-09-29T06:19:12.710Z,2.1
2022-09-29T06:25:02.242Z,2.4
2022-09-29T06:30:02.342Z,2.2
2022-09-29T06:35:02.451Z,2.2
2022-09-29T06:40:02.426Z,2.1
2022-09-29T06:45:02.463Z,2.3
2022-09-29T06:50:12.593Z,2.2
2022-09-29T06:55:12.676Z,2.2
2022-09-29T07:00:12.685Z,2.1
2022-09-29T07:06:18.737Z,2.2
2022-09-29T07:11:02.284Z,2.3
2022-09-29T07:16:12.489Z,2.7
2022-09-29T07:21:12.475Z,2.8
2022-09-29T07:26:12.494Z,2.7
2022-09-29T07:31:15.232Z,3
2022-09-29T07:37:02.149Z,2.9
2022-09-29T07:42:04.303Z,3.2
2022-09-29T07:47:02.157Z,3.3
2022-09-29T07:52:02.197Z,3.3
2022-09-29T07:57:02.247Z,3.3
2022-09-29T08:02:02.500Z,2.8
2022-09-29T08:07:12.558Z,3.2
2022-09-29T08:13:02.193Z,2.9
2022-09-29T08:18:02.198Z,3.3
2022-09-29T08:23:02.295Z,3.4
2022-09-29T08:28:16.657Z,3.2
2022-09-29T08:33:12.574Z,3.7
2022-09-29T08:38:12.656Z,3.5
2022-09-29T08:44:02.404Z,3.3
2022-09-29T08:49:16.032Z,3.9
2022-09-29T08:55:12.881Z,3.6
2022-09-29T09:00:02.462Z,4.1
2022-09-29T09:05:12.676Z,4
2022-09-29T09:11:02.389Z,4.1
2022-09-29T09:16:02.404Z,4.3
2022-09-29T09:21:02.401Z,4.5
2022-09-29T09:26:12.457Z,4.9
2022-09-29T09:31:12.575Z,4.5
2022-09-29T09:38:02.153Z,4.5
2022-09-29T09:43:02.196Z,4.6
2022-09-29T09:48:12.522Z,4.8
2022-09-29T09:53:15.257Z,5.6
2022-09-29T09:58:12.648Z,5.3
2022-09-29T10:03:12.705Z,5.3
2022-09-29T10:09:02.331Z,5.5
2022-09-29T10:14:02.410Z,5.8
2022-09-29T10:19:12.786Z,5.9
2022-09-29T10:25:02.410Z,6.2
2022-09-29T10:30:02.406Z,6.1
2022-09-29T10:35:12.480Z,6.5
2022-09-29T10:40:12.701Z,6.5
2022-09-29T10:45:12.698Z,7.6
2022-09-29T10:51:02.376Z,7.1
2022-09-29T10:56:02.457Z,7.1
2022-09-29T11:01:12.708Z,7.1
2022-09-29T11:07:02.393Z,7.9
2022-09-29T11:12:06.246Z,8.2
2022-09-29T11:17:12.504Z,9.2
2022-09-29T11:22:12.692Z,8.8
2022-09-29T11:27:13.080Z,8.3
2022-09-29T11:33:02.430Z,8.3
2022-09-29T11:38:12.520Z,9.5
2022-09-29T11:43:12.728Z,8
2022-09-29T11:49:02.395Z,9.3
2022-09-29T11:54:05.280Z,8.7
2022-09-29T12:02:02.496Z,8.9
2022-09-29T12:07:02.441Z,9.8
2022-09-29T12:12:23.056Z,10.6
2022-09-29T12:17:12.790Z,11.2
2022-09-29T12:23:02.207Z,11.2
2022-09-29T12:28:02.201Z,11.8
2022-09-29T12:33:12.717Z,11.2
2022-09-29T12:39:05.620Z,11.9
2022-09-29T12:44:12.788Z,11.6
2022-09-29T12:50:02.483Z,11.6
2022-09-29T12:55:12.709Z,11.9
2022-09-29T13:01:02.233Z,12
2022-09-29T13:06:02.446Z,12
2022-09-29T13:11:12.485Z,13.1
2022-09-29T13:16:12.612Z,12.4
2022-09-29T13:21:12.584Z,12.3
2022-09-29T13:27:02.269Z,12.3
2022-09-29T13:32:12.778Z,12.2
2022-09-29T13:38:02.243Z,11.3
2022-09-29T13:43:02.342Z,12.2
2022-09-29T13:48:12.626Z,12.7
2022-09-29T13:54:02.272Z,12.2
2022-09-29T13:59:12.514Z,11.5
2022-09-29T14:05:02.257Z,12.8
2022-09-29T14:10:12.650Z,11.5
2022-09-29T14:16:02.370Z,11.9
2022-09-29T14:21:02.232Z,11.8
2022-09-29T14:26:12.527Z,11.7
2022-09-29T14:31:12.612Z,11.9
2022-09-29T14:37:02.235Z,13
2022-09-29T14:42:02.449Z,12.4
2022-09-29T14:47:12.687Z,12.7
2022-09-29T14:52:12.727Z,12.3
2022-09-29T14:58:02.233Z,11.8
2022-09-29T15:03:23.491Z,11.9
2022-09-29T15:08:12.533Z,12
2022-09-29T15:13:12.564Z,12.5
2022-09-29T15:18:12.858Z,12.1
2022-09-29T15:24:07.112Z,13.2
2022-09-29T15:29:14.637Z,12
2022-09-29T15:34:12.773Z,10.2
2022-09-29T15:40:02.415Z,10.5
2022-09-29T15:45:12.733Z,10.8
2022-09-29T15:50:22.993Z,10.1
2022-09-29T15:56:02.417Z,9.9
2022-09-29T16:01:02.454Z,9.4
2022-09-29T16:07:02.440Z,9.5
2022-09-29T16:12:12.725Z,9.3
2022-09-29T16:18:02.559Z,8.8
2022-09-29T16:23:12.773Z,8.8
2022-09-29T16:29:02.441Z,8.2
2022-09-29T16:34:02.516Z,7.9
2022-09-29T16:39:15.574Z,7.6
2022-09-29T16:44:21.071Z,6.6
2022-09-29T16:50:02.459Z,6.1
2022-09-29T16:55:12.713Z,6.1
2022-09-29T17:01:02.232Z,5.8
2022-09-29T17:06:02.441Z,5.8
2022-09-29T17:11:12.803Z,5
2022-09-29T17:17:02.281Z,4.9
2022-09-29T17:22:02.442Z,4.7
2022-09-29T17:27:12.752Z,4.4
2022-09-29T17:32:12.747Z,4.2
2022-09-29T17:38:02.461Z,4.7
2022-09-29T17:43:12.746Z,4.8
2022-09-29T17:49:02.486Z,4.9
2022-09-29T17:54:12.545Z,4.7
2022-09-29T17:59:12.730Z,4.6
2022-09-29T18:04:12.775Z,4.3
2022-09-29T18:10:02.470Z,4.2
2022-09-29T18:15:02.444Z,4
2022-09-29T18:20:12.484Z,3.6
2022-09-29T18:25:12.588Z,3.8
2022-09-29T18:31:02.498Z,3.5
2022-09-29T18:36:02.467Z,3.4
2022-09-29T18:41:12.759Z,3.4
2022-09-29T18:47:02.326Z,3.2
2022-09-29T18:52:02.437Z,3.1
2022-09-29T18:57:02.471Z,2.8
2022-09-29T19:02:12.703Z,2.8
2022-09-29T19:07:12.727Z,2.9
2022-09-29T19:12:12.754Z,2.8
2022-09-29T19:18:02.467Z,2.9
2022-09-29T19:23:02.503Z,2.7
2022-09-29T19:28:12.587Z,2.7
2022-09-29T19:33:12.700Z,2.6
2022-09-29T19:39:02.309Z,2.6
2022-09-29T19:44:12.861Z,2.6
2022-09-29T19:49:12.873Z,2.5
2022-09-29T19:55:02.269Z,2.4
2022-09-29T20:00:02.329Z,2.6
2022-09-29T20:05:12.551Z,2.7
2022-09-29T20:11:02.192Z,2.6
2022-09-29T20:16:02.322Z,2.7
2022-09-29T20:21:12.507Z,2.7
2022-09-29T20:26:12.553Z,2.6
2022-09-29T20:32:02.261Z,2.8
2022-09-29T20:37:02.254Z,2.5
2022-09-29T20:42:12.528Z,2.4
2022-09-29T20:47:12.617Z,2.6
2022-09-29T20:52:12.571Z,2.6
2022-09-29T20:58:02.253Z,2.6
2022-09-29T21:03:02.572Z,2.4
2022-09-29T21:08:12.578Z,2.4
2022-09-29T21:14:02.199Z,2.4
2022-09-29T21:19:02.323Z,2.6
2022-09-29T21:24:02.323Z,2.6
2022-09-29T21:29:12.753Z,2.6
2022-09-29T21:35:02.317Z,2.7
2022-09-29T21:40:02.257Z,2.4
2022-09-29T21:45:03.097Z,2.5
2022-09-29T21:50:12.720Z,2.4
2022-09-29T21:55:12.702Z,2.5
2022-09-29T22:00:12.737Z,2.3
2022-09-29T22:06:02.280Z,2.5
2022-09-29T22:11:12.720Z,2.7
2022-09-29T22:16:12.912Z,2.4
2022-09-29T22:21:12.776Z,2.4
2022-09-29T22:27:02.273Z,2.5
2022-09-29T22:32:12.727Z,2.3
2022-09-29T22:37:12.789Z,2.6
2022-09-29T22:43:02.449Z,2.7
2022-09-29T22:48:12.676Z,2.6
2022-09-29T22:54:02.303Z,2.6
2022-09-29T22:59:12.555Z,2.9
2022-09-29T23:04:12.643Z,2.4
2022-09-29T23:09:12.781Z,2.2
2022-09-29T23:14:12.735Z,2.6
2022-09-29T23:19:12.734Z,2.3
2022-09-29T23:24:12.774Z,2.2
2022-09-29T23:30:02.249Z,2.4
2022-09-29T23:35:02.426Z,2.7
2022-09-29T23:40:12.732Z,2.4
2022-09-29T23:45:17.199Z,2.6
2022-09-29T23:51:02.233Z,2.3
2022-09-29T23:56:02.428Z,2.5
